Latest Weather Observations for Pallamana

IDS60901

Issued at 6:41 pm CDT Thursday 23 March 2017 (issued every 10 minutes, with the page automatically refreshed every 10 minutes)

About weather observations | Map of Adelaide area stations | Latest observations for Adelaide area | Other Formats
Station Details ID: 024584 Name: PALLAMANA AERODROME Lat: -35.06 Lon: 139.23 Height: 45.0 m
Data from the previous 72 hours. | See also: Recent months at Pallamana
Date/Time
CDT
Temp
°C
App
Temp
°C
Dew
Point
°C
Rel
Hum
%
Delta-T
°C
Wind Press
QNH
hPa
Press
MSL
hPa
Rain since
9am
mm
Dir  Spd
km/h
Gust
km/h
Spd
kts
Gust
kts
23/06:30pm 23.7 19.7 14.0 54 5.7 SSW 28 35 15 19 1015.6 1015.4 0.0
23/06:00pm 25.1 21.8 13.9 49 6.6 SSW 24 32 13 17 1015.5 1015.3 0.0
23/05:30pm 26.1 22.8 14.0 47 7.2 SSW 24 32 13 17 1015.3 1015.1 0.0
23/05:00pm 27.7 25.1 13.7 42 8.3 S 20 30 11 16 1015.2 1015.0 0.0
23/04:30pm 27.7 25.1 13.3 41 8.5 S 19 32 10 17 1015.3 1015.1 0.0
23/04:00pm 28.0 25.2 13.1 39 8.8 S 20 30 11 16 1015.3 1015.1 0.0
23/03:30pm 28.0 25.4 13.1 39 8.8 SE 19 26 10 14 1015.3 1015.1 0.0
23/03:00pm 27.3 24.4 13.0 41 8.4 SSE 20 30 11 16 1015.6 1015.4 0.0
23/02:30pm 27.2 24.9 13.1 41 8.3 SSE 17 28 9 15 1015.8 1015.6 0.0
23/02:00pm 25.7 23.4 13.0 45 7.4 SE 17 30 9 16 1016.4 1016.2 0.0
23/01:30pm 25.5 23.2 12.9 45 7.3 SE 17 24 9 13 1017.1 1017.0 0.0
23/01:00pm 24.3 22.1 13.3 50 6.4 SE 17 20 9 11 1017.8 1017.7 0.0
23/12:30pm 23.6 22.6 13.4 52 5.9 SE 11 19 6 10 1018.3 1018.2 0.0
23/12:00pm 21.9 20.1 13.4 58 4.9 S 15 20 8 11 1018.9 1018.8 0.0
23/11:30am 21.1 20.2 13.8 63 4.2 SE 11 17 6 9 1018.9 1018.8 0.0
23/11:00am 20.5 19.3 13.9 66 3.8 SE 13 20 7 11 1019.0 1018.9 0.0
23/10:30am 19.8 18.4 13.3 66 3.7 SE 13 20 7 11 1019.1 1019.0 0.0
23/10:00am 18.3 17.3 13.5 73 2.7 SSE 11 15 6 8 1019.6 1019.5 0.0
23/09:43am 18.3 17.5 14.1 76 2.4 SSE 11 15 6 8 1019.7 1019.6 0.0
23/09:30am 17.3 16.5 14.1 81 1.8 SSE 11 17 6 9 1019.6 1019.5 0.0
23/09:00am 16.0 15.3 14.2 89 1.0 SSE 11 17 6 9 1019.4 1019.3 -
23/08:30am 15.1 14.7 14.0 93 0.6 S 9 13 5 7 1019.1 1019.0 -
23/08:00am 14.5 14.0 13.8 96 0.4 SSW 9 11 5 6 1018.8 1018.7 -
23/07:30am 14.3 14.1 13.6 96 0.4 S 7 11 4 6 1018.5 1018.4 -
23/07:00am 14.2 13.6 13.5 96 0.4 S 9 11 5 6 1018.1 1018.0 -
23/06:30am 13.7 12.9 12.8 94 0.5 SSW 9 13 5 7 1018.1 1018.0 -
23/06:00am 14.1 12.7 13.4 96 0.4 SSW 13 15 7 8 1018.1 1018.0 -
23/05:32am 13.7 12.9 12.8 94 0.5 SSW 9 13 5 7 1018.0 1017.9 -
23/05:30am 13.6 12.7 12.7 94 0.5 SSW 9 13 5 7 1018.0 1017.9 -
23/05:00am 13.8 12.9 12.7 93 0.6 SW 9 13 5 7 1018.2 1018.1 -
23/04:30am 14.1 13.3 13.0 93 0.6 SSW 9 13 5 7 1017.9 1017.8 -
23/04:00am 14.1 13.0 13.0 93 0.6 SW 11 13 6 7 1018.1 1018.0 -
23/03:30am 14.5 13.0 13.2 92 0.7 SSW 13 15 7 8 1018.1 1018.0 -
23/03:00am 14.7 13.3 13.3 91 0.8 SSW 13 17 7 9 1018.0 1017.9 0.0
23/02:30am 14.8 13.7 13.2 90 0.9 S 11 15 6 8 1017.8 1017.7 -
23/02:00am 15.1 13.4 13.5 90 0.9 S 15 19 8 10 1017.9 1017.8 -
23/01:30am 15.3 14.7 13.5 89 1.0 S 9 13 5 7 1018.3 1018.2 -
23/01:00am 15.7 14.0 13.7 88 1.1 S 15 17 8 9 1018.3 1018.2 -
23/12:30am 16.3 14.3 14.0 86 1.3 S 17 24 9 13 1018.4 1018.3 -
23/12:00am 16.6 14.8 14.5 87 1.2 S 17 24 9 13 1018.4 1018.3 -
 
Date/Time
CDT
Temp
°C
App
Temp
°C
Dew
Point
°C
Rel
Hum
%
Delta-T
°C
Wind Press
QNH
hPa
Press
MSL
hPa
Rain since
9am
mm
Dir  Spd
km/h
Gust
km/h
Spd
kts
Gust
kts
22/11:30pm 17.5 15.5 14.9 85 1.5 S 19 24 10 13 1018.6 1018.5 -
22/11:00pm 17.1 15.1 15.6 91 0.9 SSW 20 24 11 13 1018.7 1018.6 -
22/10:30pm 17.4 15.4 15.5 89 1.1 SSW 20 24 11 13 1018.7 1018.6 -
22/10:00pm 17.8 16.4 15.6 87 1.3 SSW 17 22 9 12 1018.6 1018.5 -
22/09:30pm 18.2 16.5 15.7 85 1.5 SSW 19 24 10 13 1018.4 1018.3 -
22/09:00pm 18.5 17.1 15.6 83 1.7 SSW 17 24 9 13 1018.1 1018.0 0.0
22/08:30pm 19.1 17.2 15.7 80 2.0 SSW 20 26 11 14 1017.6 1017.5 -
22/08:00pm 19.5 17.5 15.6 78 2.3 SSW 20 28 11 15 1017.2 1017.1 -
22/07:30pm 20.0 17.2 15.4 75 2.7 SSW 24 33 13 18 1017.0 1016.9 -
22/07:00pm 20.2 17.8 15.5 74 2.8 SSW 22 32 12 17 1016.7 1016.5 -
22/06:30pm 20.6 17.8 15.4 72 3.1 SSW 24 35 13 19 1016.7 1016.5 -
22/06:00pm 21.1 17.9 15.2 69 3.5 SSW 26 35 14 19 1016.5 1016.3 -
22/05:30pm 21.9 18.7 15.2 65 4.0 S 26 35 14 19 1016.2 1016.0 -
22/05:00pm 21.7 17.2 14.9 65 4.0 S 32 43 17 23 1016.2 1016.0 -
22/04:30pm 22.2 18.4 14.6 62 4.5 S 28 35 15 19 1016.5 1016.3 -
22/04:00pm 22.4 19.0 14.8 62 4.5 SSW 26 35 14 19 1016.5 1016.3 -
22/03:30pm 22.0 18.5 14.5 62 4.4 S 26 37 14 20 1016.5 1016.3 -
22/03:00pm 22.0 18.7 14.9 64 4.2 SSW 26 37 14 20 1016.5 1016.3 -
22/02:30pm 21.7 18.4 14.9 65 4.0 S 26 35 14 19 1016.6 1016.4 -
22/02:00pm 21.1 17.4 15.0 68 3.6 S 28 37 15 20 1017.0 1016.9 -
22/12:30pm 21.3 18.0 14.1 63 4.2 SSE 24 33 13 18 1017.6 1017.5 0.0
22/12:00pm 20.9 17.3 14.2 65 3.9 S 26 35 14 19 1017.9 1017.8 0.0
22/11:30am 20.5 16.9 14.3 67 3.6 S 26 35 14 19 1018.0 1017.9 0.0
22/11:00am 20.3 17.1 14.3 68 3.5 S 24 32 13 17 1018.0 1017.9 0.0
22/10:30am 20.1 17.0 14.4 69 3.3 S 24 32 13 17 1017.8 1017.7 0.0
22/10:00am 19.8 17.5 14.7 72 3.0 SSE 20 28 11 15 1017.6 1017.5 0.0
22/09:30am 19.0 16.9 15.1 78 2.3 S 20 26 11 14 1017.4 1017.3 0.0
22/09:00am 18.4 16.6 15.5 83 1.7 S 19 26 10 14 1017.2 1017.1 0.2
22/08:30am 17.9 17.0 15.9 88 1.2 S 15 20 8 11 1016.9 1016.8 0.2
22/08:00am 17.5 16.7 16.0 91 0.9 S 15 20 8 11 1016.5 1016.3 0.2
22/07:53am 17.4 16.6 16.0 91 0.8 S 15 22 8 12 1016.5 1016.3 0.2
22/07:30am 17.4 15.6 16.0 91 0.8 S 20 28 11 15 1016.4 1016.2 0.2
22/07:07am 17.3 16.2 16.3 94 0.6 S 17 26 9 14 1015.9 1015.7 0.2
22/07:04am 17.3 15.8 16.3 94 0.6 S 19 26 10 14 1015.9 1015.7 0.2
22/07:00am 17.4 16.2 16.2 93 0.7 S 17 26 9 14 1015.8 1015.6 0.2
22/06:46am 17.5 16.8 16.3 93 0.7 S 15 19 8 10 1015.7 1015.5 0.2
22/06:40am 17.5 16.8 16.3 93 0.7 S 15 20 8 11 1015.6 1015.4 0.2
22/06:30am 17.6 15.8 16.1 91 0.9 S 20 30 11 16 1015.5 1015.3 0.2
22/06:00am 18.0 15.7 15.8 87 1.3 S 22 32 12 17 1015.1 1014.9 0.2
22/05:30am 18.4 16.3 15.3 82 1.8 S 20 26 11 14 1014.8 1014.6 0.2
22/05:00am 18.8 16.6 14.9 78 2.3 S 20 28 11 15 1014.8 1014.6 0.2
22/04:30am 18.8 15.8 14.9 78 2.3 S 24 35 13 19 1014.4 1014.2 0.2
22/04:00am 18.8 16.2 14.9 78 2.3 SSE 22 28 12 15 1014.3 1014.1 0.2
22/03:30am 18.9 16.8 15.3 79 2.1 S 20 30 11 16 1014.5 1014.3 0.2
22/03:00am 19.1 17.7 15.5 79 2.1 S 17 22 9 12 1014.5 1014.3 0.2
22/02:30am 19.1 17.1 15.5 79 2.1 S 20 28 11 15 1014.4 1014.2 0.2
22/02:00am 19.3 17.7 15.9 81 2.0 S 19 28 10 15 1014.2 1014.0 0.2
22/01:30am 19.5 18.0 16.2 81 2.0 SSW 19 24 10 13 1014.3 1014.1 0.2
22/01:00am 19.6 18.1 16.3 81 2.0 S 19 26 10 14 1014.2 1014.0 0.2
22/12:30am 19.9 18.4 16.4 80 2.1 SSE 19 26 10 14 1014.1 1013.9 0.2
22/12:00am 19.9 18.3 16.6 81 2.0 SSE 20 32 11 17 1014.1 1013.9 0.2
 
Date/Time
CDT
Temp
°C
App
Temp
°C
Dew
Point
°C
Rel
Hum
%
Delta-T
°C
Wind Press
QNH
hPa
Press
MSL
hPa
Rain since
9am
mm
Dir  Spd
km/h
Gust
km/h
Spd
kts
Gust
kts
21/11:30pm 20.2 18.4 17.8 86 1.5 S 24 32 13 17 1013.9 1013.7 0.2
21/11:00pm 20.4 19.6 18.1 87 1.4 SSW 19 28 10 15 1013.8 1013.6 0.2
21/10:30pm 20.1 18.8 18.2 89 1.2 SW 22 28 12 15 1013.5 1013.3 0.2
21/10:00pm 19.7 18.8 18.1 90 1.0 SW 20 24 11 13 1013.2 1013.0 0.2
21/09:30pm 20.0 19.3 18.2 89 1.1 SSW 19 30 10 16 1012.7 1012.5 0.2
21/09:00pm 20.1 18.4 18.2 89 1.2 SW 24 32 13 17 1012.4 1012.2 0.2
21/08:30pm 20.3 16.9 18.2 88 1.3 SW 33 43 18 23 1011.6 1011.4 0.2
21/08:00pm 20.7 17.6 18.3 86 1.5 SW 32 43 17 23 1010.8 1010.7 0.2
21/07:30pm 22.1 20.1 18.3 79 2.4 SW 26 33 14 18 1010.4 1010.3 0.2
21/07:00pm 22.5 20.2 18.5 78 2.5 SSW 28 37 15 20 1010.1 1010.0 0.2
21/06:30pm 23.2 21.2 19.1 78 2.6 SSW 28 33 15 18 1009.7 1009.6 0.2
21/06:00pm 25.2 22.6 17.7 63 4.7 S 28 39 15 21 1009.2 1009.1 0.2
21/05:30pm 26.7 24.4 17.7 57 5.7 SSW 26 39 14 21 1009.0 1008.9 0.2
21/05:00pm 30.0 28.5 16.2 43 8.6 S 19 24 10 13 1008.7 1008.6 0.2
21/04:30pm 28.6 28.2 16.2 47 7.7 SSE 13 17 7 9 1008.9 1008.8 0.2
21/04:00pm 29.7 29.1 16.6 45 8.2 SE 15 22 8 12 1009.0 1008.9 0.2
21/03:30pm 28.6 29.1 16.6 48 7.5 S 9 13 5 7 1009.3 1009.2 0.2
21/03:00pm 27.7 28.5 17.4 53 6.5 ESE 9 15 5 8 1009.6 1009.5 0.2
21/02:30pm 28.6 28.4 17.6 51 7.0 SE 15 22 8 12 1009.8 1009.7 0.2
21/02:00pm 27.3 26.9 18.0 56 5.9 SSE 17 26 9 14 1010.1 1010.0 0.2
21/01:30pm 26.7 26.2 17.8 58 5.6 SE 17 24 9 13 1010.7 1010.6 0.2
21/01:00pm 27.1 26.4 18.3 58 5.6 SE 19 28 10 15 1010.8 1010.7 0.2
21/12:30pm 25.7 24.5 18.3 63 4.7 SSE 22 33 12 18 1011.3 1011.1 0.0
21/12:00pm 24.7 22.6 18.0 66 4.2 SSE 26 35 14 19 1011.5 1011.3 0.0
21/11:30am 24.3 22.1 18.6 70 3.6 SSE 28 37 15 20 1011.7 1011.5 0.0
21/11:00am 24.5 23.1 18.7 70 3.7 SSE 24 41 13 22 1011.9 1011.7 0.0
21/10:30am 22.9 21.3 18.3 75 2.9 S 24 35 13 19 1012.0 1011.8 0.0
21/10:00am 21.6 20.0 18.4 82 2.0 S 24 35 13 19 1011.7 1011.5 0.0
21/09:30am 21.5 21.0 19.0 86 1.6 SSW 20 30 11 16 1011.4 1011.2 0.0
21/09:00am 20.8 19.4 18.9 89 1.2 SSW 24 30 13 16 1011.0 1010.9 0.4
21/08:30am 20.1 19.0 18.7 92 0.9 SW 22 28 12 15 1010.7 1010.6 0.4
21/08:00am 20.0 18.9 18.6 92 0.9 SW 22 28 12 15 1010.4 1010.3 0.4
21/07:30am 19.2 18.4 18.1 93 0.7 SW 19 20 10 11 1009.7 1009.6 0.4
21/07:00am 19.2 19.2 18.1 93 0.7 SW 15 19 8 10 1009.3 1009.2 0.4
21/06:30am 19.0 18.9 17.9 93 0.7 WSW 15 19 8 10 1009.0 1008.9 0.4
21/06:00am 19.0 19.6 17.7 92 0.8 SW 11 17 6 9 1008.7 1008.6 0.4
21/05:30am 19.2 19.5 17.9 92 0.8 WSW 13 15 7 8 1008.8 1008.7 0.4
21/05:00am 19.4 18.9 17.9 91 0.9 WSW 17 19 9 10 1008.8 1008.7 0.4
21/04:30am 19.4 18.9 17.8 90 1.0 WSW 17 19 9 10 1008.8 1008.7 0.4
21/04:00am 19.3 18.3 17.5 89 1.1 WSW 19 20 10 11 1009.0 1008.9 0.4
21/03:30am 19.8 19.6 17.5 86 1.4 SW 15 17 8 9 1008.9 1008.8 0.4
21/03:00am 20.0 19.2 17.2 84 1.7 SW 17 19 9 10 1009.3 1009.2 0.4
21/02:30am 20.3 19.9 17.2 82 1.9 SW 15 17 8 9 1009.6 1009.5 0.4
21/02:00am 20.6 20.1 17.0 80 2.2 WSW 15 19 8 10 1009.8 1009.7 0.4
21/01:30am 21.0 20.9 16.9 77 2.5 SW 13 15 7 8 1010.0 1009.9 0.4
21/01:00am 21.5 21.2 17.3 77 2.6 WSW 15 17 8 9 1010.1 1010.0 0.4
21/12:30am 22.1 22.2 17.4 74 2.9 SW 13 17 7 9 1010.1 1010.0 0.4
21/12:00am 21.8 21.9 17.4 76 2.7 SW 13 15 7 8 1010.3 1010.2 0.4
 
Date/Time
CDT
Temp
°C
App
Temp
°C
Dew
Point
°C
Rel
Hum
%
Delta-T
°C
Wind Press
QNH
hPa
Press
MSL
hPa
Rain since
9am
mm
Dir  Spd
km/h
Gust
km/h
Spd
kts
Gust
kts
20/11:30pm 22.1 22.0 17.8 76 2.7 WSW 15 17 8 9 1010.8 1010.7 0.4
20/11:00pm 22.5 22.3 17.7 74 3.0 WSW 15 17 8 9 1011.1 1011.0 0.4
20/10:30pm 22.6 22.9 18.0 75 2.9 SW 13 15 7 8 1011.1 1011.0 0.4
20/10:00pm 22.3 23.5 18.3 78 2.5 SSW 9 13 5 7 1011.0 1010.9 0.4
20/09:30pm 22.6 23.8 18.3 76 2.7 SSW 9 11 5 6 1011.4 1011.2 0.4
20/09:00pm 23.0 24.2 18.2 74 3.0 SSE 9 17 5 9 1011.1 1011.0 0.4
20/08:30pm 23.0 23.9 19.2 79 2.4 SE 13 20 7 11 1010.8 1010.7 0.4
20/08:00pm 23.3 24.1 19.9 81 2.2 SSE 15 24 8 13 1010.6 1010.5 0.4
20/07:30pm 23.5 24.9 20.3 82 2.1 S 13 17 7 9 1010.4 1010.3 0.4
20/07:00pm 23.7 24.3 20.3 81 2.2 SSE 17 26 9 14 1010.2 1010.1 0.4

Latest Capital City Observations: Canberra | Sydney | Melbourne | Brisbane | Adelaide | Perth | Hobart | Darwin

Other Formats:

Comma delimited format used in spreadsheet applications
http://www.bom.gov.au/fwo/IDS60901/IDS60901.95818.axf

JavaScript Object Notation format (JSON) in row-major order
http://www.bom.gov.au/fwo/IDS60901/IDS60901.95818.json